Waterman — PIMU — position and weather

sailwx.info

Track history (hours):
 
Tides and Currents Weather Stations Pressure Air Temp Water Temp Dewpoint Dewpoint Depression Visibility Wind Speed Wind Dir Waves Ship Positions

Waterman

Last reported at 2014-Oct-01 09:33 UTC. Time now 2014-Oct-01 10:18 UTC.
Position N 51°37' E 003°23'.

Length 26 m; draft 3.2 m.

Type: Tug. MMSI: 245128000.

Date/timePositionNaut miles runAvg speedWind from/ knotsBaromVisibWave heightAir tempDewpointWater temp
2014-Oct-01 09:33N 51°37' E 003°23'7 7.1
2014-Oct-01 08:33N 51°30' E 003°27'7 6.6
2014-Oct-01 07:33N 51°26' E 003°36'4 4.2
2014-Oct-01 06:33N 51°27' E 003°42'0 0.1
2014-Oct-01 05:33N 51°27' E 003°42'0 0.1
2014-Oct-01 04:33N 51°27' E 003°42'0 0.0
2014-Oct-01 03:33N 51°27' E 003°42'0 0.0
2014-Oct-01 02:33N 51°27' E 003°42'0 0.0
2014-Oct-01 01:33N 51°27' E 003°42'0 0.0
2014-Oct-01 00:33N 51°27' E 003°42'0 0.0
2014-Sep-30 23:33N 51°27' E 003°42'0 0.0
2014-Sep-30 22:33N 51°27' E 003°42'0 0.0
2014-Sep-30 21:33N 51°27' E 003°42'0 0.0
2014-Sep-30 20:33N 51°27' E 003°42'0 0.0
2014-Sep-30 19:33N 51°27' E 003°42'0 0.0
2014-Sep-30 18:33N 51°27' E 003°42'0 0.0
2014-Sep-30 17:33N 51°27' E 003°42'0 0.0
2014-Sep-30 16:33N 51°27' E 003°42'7 7.1
2014-Sep-30 15:33N 51°28' E 003°31'1110.6
2014-Sep-30 14:33N 51°37' E 003°22'1010.4
2014-Sep-30 13:33N 51°46' E 003°14'116 9.5
2014-Sep-30 01:20N 53°29' E 004°41'9 9.9
2014-Sep-30 00:28N 53°33' E 004°54'9 9.3
2014-Sep-29 23:33N 53°35' E 005°08'9 8.7
2014-Sep-29 22:33N 53°37' E 005°22'8 8.5
2014-Sep-29 21:33N 53°40' E 005°36'9 8.5
2014-Sep-29 20:33N 53°43' E 005°49'6510.4
2014-Sep-29 14:19N 54°01' E 007°35'7 9.3
2014-Sep-29 13:33N 54°02' E 007°47'9 9.1
2014-Sep-29 12:33N 54°01' E 008°02'9 8.8
2014-Sep-29 11:33N 54°00' E 008°17'8 8.1
2014-Sep-29 10:33N 53°59' E 008°30'1010.2
2014-Sep-29 09:33N 53°52' E 008°44'7 6.6
2014-Sep-29 08:33N 53°50' E 008°55'6 5.5
2014-Sep-29 07:33N 53°51' E 008°45'6 5.6
2014-Sep-29 06:33N 53°55' E 008°40'6 6.3
2014-Sep-29 05:33N 53°58' E 008°30'7 7.2
2014-Sep-29 04:33N 53°59' E 008°18'9 8.6
2014-Sep-29 03:33N 53°58' E 008°04'55 7.9
2014-Sep-28 20:33N 53°34' E 006°40'8 8.5
2014-Sep-28 19:33N 53°29' E 006°51'1110.6
2014-Sep-28 18:33N 53°20' E 007°00'3 2.5
2014-Sep-28 17:31N 53°20' E 006°56'0 0.0
2014-Sep-28 16:31N 53°20' E 006°56'0 0.0
2014-Sep-28 15:31N 53°20' E 006°56'0 0.0
2014-Sep-28 14:31N 53°20' E 006°56'0 0.0
2014-Sep-28 13:31N 53°20' E 006°56'0 0.0
2014-Sep-28 12:31N 53°20' E 006°56'0 0.0
2014-Sep-28 11:31N 53°20' E 006°56'0 0.0
2014-Sep-28 10:31N 53°20' E 006°56'0 0.0
2014-Sep-28 09:31N 53°20' E 006°56'0 0.0
2014-Sep-28 08:31N 53°20' E 006°56'0 0.0
2014-Sep-28 07:31N 53°20' E 006°56'0 0.0
2014-Sep-28 06:31N 53°20' E 006°56'0 0.0
2014-Sep-28 05:34N 53°20' E 006°56'0 0.0
2014-Sep-28 04:34N 53°20' E 006°56'0 0.0
2014-Sep-28 03:31N 53°20' E 006°56'0 0.0
2014-Sep-28 02:34N 53°20' E 006°56'0 0.0
2014-Sep-28 01:34N 53°20' E 006°56'0 0.0
2014-Sep-28 00:34N 53°20' E 006°56'0 0.0
2014-Sep-27 23:31N 53°20' E 006°56'0 0.0
2014-Sep-27 22:34N 53°20' E 006°56'0 0.0
2014-Sep-27 21:31N 53°20' E 006°56'0 0.0
2014-Sep-27 20:34N 53°20' E 006°56'0 0.0
2014-Sep-27 19:34N 53°20' E 006°56'0 0.0
2014-Sep-27 18:34N 53°20' E 006°56'0 0.0
2014-Sep-27 17:34N 53°20' E 006°56'0 0.0
2014-Sep-27 16:34N 53°20' E 006°56'0 0.0
2014-Sep-27 15:34N 53°20' E 006°56'0 0.0
2014-Sep-27 14:34N 53°20' E 006°56'0 0.0
2014-Sep-27 13:34N 53°20' E 006°56'0 0.0
2014-Sep-27 12:34N 53°20' E 006°56'0 0.0
2014-Sep-27 11:34N 53°20' E 006°56'0 0.0
2014-Sep-27 10:34N 53°20' E 006°56'0 0.1
2014-Sep-27 09:32N 53°20' E 006°56'0 0.1
2014-Sep-27 08:33N 53°20' E 006°56'0 0.0
2014-Sep-27 07:33N 53°20' E 006°56'0 0.0
2014-Sep-27 06:33N 53°20' E 006°56'0 0.0
2014-Sep-27 05:33N 53°20' E 006°56'0 0.0
2014-Sep-27 04:33N 53°20' E 006°56'0 0.0
2014-Sep-27 03:33N 53°20' E 006°56'0 0.0
2014-Sep-27 02:33N 53°20' E 006°56'0 0.0
2014-Sep-27 01:33N 53°20' E 006°56'0 0.0
2014-Sep-27 00:33N 53°20' E 006°56'0 0.0
2014-Sep-26 23:33N 53°20' E 006°56'0 0.0
2014-Sep-26 22:33N 53°20' E 006°56'0 0.0
2014-Sep-26 21:33N 53°20' E 006°56'0 0.0
2014-Sep-26 20:33N 53°20' E 006°56'0 0.0
2014-Sep-26 19:33N 53°20' E 006°56'0 0.0
2014-Sep-26 18:33N 53°20' E 006°56'0 0.0
2014-Sep-26 17:33N 53°20' E 006°56'0 0.0
2014-Sep-26 16:33N 53°20' E 006°56'0 0.0
2014-Sep-26 15:33N 53°20' E 006°56'0 0.0
2014-Sep-26 14:33N 53°20' E 006°56'0 0.3
2014-Sep-26 13:33N 53°20' E 006°56'0 0.3
2014-Sep-26 12:33N 53°20' E 006°56'0 0.0
2014-Sep-26 11:33N 53°20' E 006°56'0 0.0
2014-Sep-26 10:33N 53°20' E 006°56'0 0.1
2014-Sep-26 09:33N 53°20' E 006°56'0 0.2
2014-Sep-26 08:33N 53°20' E 006°56'0 0.0
2014-Sep-26 07:33N 53°20' E 006°56'0 0.0
2014-Sep-26 06:33N 53°20' E 006°56'0 0.0
2014-Sep-26 05:33N 53°20' E 006°56'0 0.0
2014-Sep-26 04:33N 53°20' E 006°56'0 0.0
2014-Sep-26 03:33N 53°20' E 006°56'0 0.0
2014-Sep-26 02:33N 53°20' E 006°56'0 0.0
2014-Sep-26 01:33N 53°20' E 006°56'0 0.0
2014-Sep-26 00:33N 53°20' E 006°56'0 0.0
2014-Sep-25 23:33N 53°20' E 006°56'0 0.0
2014-Sep-25 22:33N 53°20' E 006°56'0 0.0
2014-Sep-25 21:33N 53°20' E 006°56'0 0.0
2014-Sep-25 20:33N 53°20' E 006°56'0 0.0
2014-Sep-25 19:33N 53°20' E 006°56'0 0.0
2014-Sep-25 18:33N 53°20' E 006°56'0 0.0
2014-Sep-25 17:33N 53°20' E 006°56'0 0.0
2014-Sep-25 16:33N 53°20' E 006°56'0 0.0
2014-Sep-25 15:33N 53°20' E 006°56'0 0.0
2014-Sep-25 14:33N 53°20' E 006°56'0 0.0
2014-Sep-25 13:33N 53°20' E 006°56'0 0.0
2014-Sep-25 12:33N 53°20' E 006°56'0 0.0
2014-Sep-25 11:33N 53°20' E 006°56'0 0.0
2014-Sep-25 10:33N 53°20' E 006°56'0 0.0
2014-Sep-25 09:33N 53°20' E 006°56'0 0.0
2014-Sep-25 08:33N 53°20' E 006°56'1 1.3
2014-Sep-25 07:33N 53°19' E 006°58'1 1.3
2014-Sep-25 06:34N 53°20' E 006°56'0 0.1
2014-Sep-25 05:31N 53°20' E 006°56'0 0.0
2014-Sep-25 04:31N 53°20' E 006°56'0 0.0
2014-Sep-25 03:31N 53°20' E 006°56'0 0.0
2014-Sep-25 02:31N 53°20' E 006°56'0 0.0
2014-Sep-25 01:31N 53°20' E 006°56'0 0.0
2014-Sep-25 00:31N 53°20' E 006°56'0 0.0
2014-Sep-24 23:31N 53°20' E 006°56'0 0.0
2014-Sep-24 22:31N 53°20' E 006°56'0 0.0
2014-Sep-24 21:31N 53°20' E 006°56'0 0.0
2014-Sep-24 20:31N 53°20' E 006°56'0 0.0
2014-Sep-24 19:31N 53°20' E 006°56'0 0.0
2014-Sep-24 18:31N 53°20' E 006°56'0 0.0
2014-Sep-24 17:31N 53°20' E 006°56'0 0.0
2014-Sep-24 16:31N 53°20' E 006°56'0 0.0
2014-Sep-24 15:31N 53°20' E 006°56'0 0.0
2014-Sep-24 14:31N 53°20' E 006°56'0 0.0
2014-Sep-24 13:31N 53°20' E 006°56'0 0.0
2014-Sep-24 12:31N 53°20' E 006°56'0 0.0
2014-Sep-24 11:31N 53°20' E 006°56'0 0.0
2014-Sep-24 10:31N 53°20' E 006°56'0 0.0
2014-Sep-24 09:31N 53°20' E 006°56'0 0.0
2014-Sep-24 08:31N 53°20' E 006°56'0 0.0
2014-Sep-24 07:31N 53°20' E 006°56'0 0.0
2014-Sep-24 06:31N 53°20' E 006°56'0 0.0
2014-Sep-24 05:31N 53°20' E 006°56'0 0.0
2014-Sep-24 04:31N 53°20' E 006°56'0 0.0
2014-Sep-24 03:31N 53°20' E 006°56'0 0.0
2014-Sep-24 02:31N 53°20' E 006°56'0 0.0
2014-Sep-24 01:31N 53°20' E 006°56'0 0.0
2014-Sep-24 00:31N 53°20' E 006°56'0 0.0
2014-Sep-23 23:31N 53°20' E 006°56'0 0.0
2014-Sep-23 22:28N 53°20' E 006°56'0 0.0
2014-Sep-23 21:31N 53°20' E 006°56'0 0.0
2014-Sep-23 20:31N 53°20' E 006°56'0 0.0
2014-Sep-23 19:31N 53°20' E 006°56'0 0.0
2014-Sep-23 18:31N 53°20' E 006°56'0 0.0
2014-Sep-23 17:31N 53°20' E 006°56'0 0.0
2014-Sep-23 16:31N 53°20' E 006°56'0 0.0
2014-Sep-23 15:31N 53°20' E 006°56'0 0.0
2014-Sep-23 14:31N 53°20' E 006°56'0 0.0
2014-Sep-23 13:28N 53°20' E 006°56'0 0.0
2014-Sep-23 12:31N 53°20' E 006°56'0 0.0
2014-Sep-23 11:31N 53°20' E 006°56'0 0.0
2014-Sep-23 10:31N 53°20' E 006°56'0 0.0
2014-Sep-23 09:31N 53°20' E 006°56'0 0.0
2014-Sep-23 08:31N 53°20' E 006°56'0 0.0
2014-Sep-23 07:31N 53°20' E 006°56'0 0.0
2014-Sep-23 06:34N 53°20' E 006°56'0 0.0
2014-Sep-23 05:32N 53°20' E 006°56'0 0.0
2014-Sep-23 04:32N 53°20' E 006°56'0 0.0
2014-Sep-23 03:32N 53°20' E 006°56'0 0.0
2014-Sep-23 02:32N 53°20' E 006°56'0 0.0
2014-Sep-23 01:32N 53°20' E 006°56'0 0.0
2014-Sep-23 00:32N 53°20' E 006°56'0 0.0
2014-Sep-22 23:32N 53°20' E 006°56'0 0.0
2014-Sep-22 22:32N 53°20' E 006°56'0 0.0
2014-Sep-22 21:32N 53°20' E 006°56'0 0.0
2014-Sep-22 20:32N 53°20' E 006°56'0 0.0
2014-Sep-22 19:32N 53°20' E 006°56'0 0.0
2014-Sep-22 18:32N 53°20' E 006°56'0 0.0
2014-Sep-22 17:32N 53°20' E 006°56'0 0.0
2014-Sep-22 16:32N 53°20' E 006°56'0 0.0
2014-Sep-22 15:32N 53°20' E 006°56'0 0.0
2014-Sep-22 14:32N 53°20' E 006°56'0 0.0
2014-Sep-22 13:29N 53°20' E 006°56'0 0.0
2014-Sep-22 12:32N 53°20' E 006°56'0 0.0
2014-Sep-22 11:32N 53°20' E 006°56'0 0.0
2014-Sep-22 10:29N 53°20' E 006°56'0 0.0
2014-Sep-22 09:29N 53°20' E 006°56'0 0.0
2014-Sep-22 08:32N 53°20' E 006°56'0 0.0
2014-Sep-22 07:32N 53°20' E 006°56'0 0.0
2014-Sep-22 06:32N 53°20' E 006°56'0 0.0
2014-Sep-22 05:32N 53°20' E 006°56'0 0.0
2014-Sep-22 04:32N 53°20' E 006°56'0 0.0
2014-Sep-22 03:32N 53°20' E 006°56'0 0.0
2014-Sep-22 02:32N 53°20' E 006°56'0 0.0
2014-Sep-22 01:32N 53°20' E 006°56'0 0.0
2014-Sep-22 00:32N 53°20' E 006°56'0 0.0
2014-Sep-21 23:32N 53°20' E 006°56'0 0.0
2014-Sep-21 22:32N 53°20' E 006°56'0 0.0
2014-Sep-21 21:32N 53°20' E 006°56'0 0.0
2014-Sep-21 20:32N 53°20' E 006°56'0 0.0
2014-Sep-21 19:32N 53°20' E 006°56'0 0.0
2014-Sep-21 18:32N 53°20' E 006°56'0 0.0
2014-Sep-21 17:32N 53°20' E 006°56'0 0.0
2014-Sep-21 16:32N 53°20' E 006°56'0 0.0
2014-Sep-21 15:32N 53°20' E 006°56'0 0.0
2014-Sep-21 14:32N 53°20' E 006°56'0 0.0
2014-Sep-21 13:32N 53°20' E 006°56'0 0.0
2014-Sep-21 12:32N 53°20' E 006°56'0 0.0
2014-Sep-21 11:32N 53°20' E 006°56'0 0.0
2014-Sep-21 10:32N 53°20' E 006°56'  
Track history (hours):
 
Tides and Currents Weather Stations Pressure Air Temp Water Temp Dewpoint Dewpoint Depression Visibility Wind Speed Wind Dir Waves Ship Positions

Waterman

Last reported at 2014-Oct-01 09:33 UTC. Time now 2014-Oct-01 10:18 UTC.
Position N 51°37' E 003°23'.

Length 26 m; draft 3.2 m.

Type: Tug. MMSI: 245128000.

Date/timePositionNaut miles runAvg speedWind from/ knotsBaromVisibWave heightAir tempDewpointWater temp
2014-Oct-01 09:33N 51°37' E 003°23'7 7.1
2014-Oct-01 08:33N 51°30' E 003°27'7 6.6
2014-Oct-01 07:33N 51°26' E 003°36'4 4.2
2014-Oct-01 06:33N 51°27' E 003°42'0 0.1
2014-Oct-01 05:33N 51°27' E 003°42'0 0.1
2014-Oct-01 04:33N 51°27' E 003°42'0 0.0
2014-Oct-01 03:33N 51°27' E 003°42'0 0.0
2014-Oct-01 02:33N 51°27' E 003°42'0 0.0
2014-Oct-01 01:33N 51°27' E 003°42'0 0.0
2014-Oct-01 00:33N 51°27' E 003°42'0 0.0
2014-Sep-30 23:33N 51°27' E 003°42'0 0.0
2014-Sep-30 22:33N 51°27' E 003°42'0 0.0
2014-Sep-30 21:33N 51°27' E 003°42'0 0.0
2014-Sep-30 20:33N 51°27' E 003°42'0 0.0
2014-Sep-30 19:33N 51°27' E 003°42'0 0.0
2014-Sep-30 18:33N 51°27' E 003°42'0 0.0
2014-Sep-30 17:33N 51°27' E 003°42'0 0.0
2014-Sep-30 16:33N 51°27' E 003°42'7 7.1
2014-Sep-30 15:33N 51°28' E 003°31'1110.6
2014-Sep-30 14:33N 51°37' E 003°22'1010.4
2014-Sep-30 13:33N 51°46' E 003°14'116 9.5
2014-Sep-30 01:20N 53°29' E 004°41'9 9.9
2014-Sep-30 00:28N 53°33' E 004°54'9 9.3
2014-Sep-29 23:33N 53°35' E 005°08'9 8.7
2014-Sep-29 22:33N 53°37' E 005°22'8 8.5
2014-Sep-29 21:33N 53°40' E 005°36'9 8.5
2014-Sep-29 20:33N 53°43' E 005°49'6510.4
2014-Sep-29 14:19N 54°01' E 007°35'7 9.3
2014-Sep-29 13:33N 54°02' E 007°47'9 9.1
2014-Sep-29 12:33N 54°01' E 008°02'9 8.8
2014-Sep-29 11:33N 54°00' E 008°17'8 8.1
2014-Sep-29 10:33N 53°59' E 008°30'1010.2
2014-Sep-29 09:33N 53°52' E 008°44'7 6.6
2014-Sep-29 08:33N 53°50' E 008°55'6 5.5
2014-Sep-29 07:33N 53°51' E 008°45'6 5.6
2014-Sep-29 06:33N 53°55' E 008°40'6 6.3
2014-Sep-29 05:33N 53°58' E 008°30'7 7.2
2014-Sep-29 04:33N 53°59' E 008°18'9 8.6
2014-Sep-29 03:33N 53°58' E 008°04'55 7.9
2014-Sep-28 20:33N 53°34' E 006°40'8 8.5
2014-Sep-28 19:33N 53°29' E 006°51'1110.6
2014-Sep-28 18:33N 53°20' E 007°00'3 2.5
2014-Sep-28 17:31N 53°20' E 006°56'0 0.0
2014-Sep-28 16:31N 53°20' E 006°56'0 0.0
2014-Sep-28 15:31N 53°20' E 006°56'0 0.0
2014-Sep-28 14:31N 53°20' E 006°56'0 0.0
2014-Sep-28 13:31N 53°20' E 006°56'0 0.0
2014-Sep-28 12:31N 53°20' E 006°56'0 0.0
2014-Sep-28 11:31N 53°20' E 006°56'0 0.0
2014-Sep-28 10:31N 53°20' E 006°56'0 0.0
2014-Sep-28 09:31N 53°20' E 006°56'0 0.0
2014-Sep-28 08:31N 53°20' E 006°56'0 0.0
2014-Sep-28 07:31N 53°20' E 006°56'0 0.0
2014-Sep-28 06:31N 53°20' E 006°56'0 0.0
2014-Sep-28 05:34N 53°20' E 006°56'0 0.0
2014-Sep-28 04:34N 53°20' E 006°56'0 0.0
2014-Sep-28 03:31N 53°20' E 006°56'0 0.0
2014-Sep-28 02:34N 53°20' E 006°56'0 0.0
2014-Sep-28 01:34N 53°20' E 006°56'0 0.0
2014-Sep-28 00:34N 53°20' E 006°56'0 0.0
2014-Sep-27 23:31N 53°20' E 006°56'0 0.0
2014-Sep-27 22:34N 53°20' E 006°56'0 0.0
2014-Sep-27 21:31N 53°20' E 006°56'0 0.0
2014-Sep-27 20:34N 53°20' E 006°56'0 0.0
2014-Sep-27 19:34N 53°20' E 006°56'0 0.0
2014-Sep-27 18:34N 53°20' E 006°56'0 0.0
2014-Sep-27 17:34N 53°20' E 006°56'0 0.0
2014-Sep-27 16:34N 53°20' E 006°56'0 0.0
2014-Sep-27 15:34N 53°20' E 006°56'0 0.0
2014-Sep-27 14:34N 53°20' E 006°56'0 0.0
2014-Sep-27 13:34N 53°20' E 006°56'0 0.0
2014-Sep-27 12:34N 53°20' E 006°56'0 0.0
2014-Sep-27 11:34N 53°20' E 006°56'0 0.0
2014-Sep-27 10:34N 53°20' E 006°56'0 0.1
2014-Sep-27 09:32N 53°20' E 006°56'0 0.1
2014-Sep-27 08:33N 53°20' E 006°56'0 0.0
2014-Sep-27 07:33N 53°20' E 006°56'0 0.0
2014-Sep-27 06:33N 53°20' E 006°56'0 0.0
2014-Sep-27 05:33N 53°20' E 006°56'0 0.0
2014-Sep-27 04:33N 53°20' E 006°56'0 0.0
2014-Sep-27 03:33N 53°20' E 006°56'0 0.0
2014-Sep-27 02:33N 53°20' E 006°56'0 0.0
2014-Sep-27 01:33N 53°20' E 006°56'0 0.0
2014-Sep-27 00:33N 53°20' E 006°56'0 0.0
2014-Sep-26 23:33N 53°20' E 006°56'0 0.0
2014-Sep-26 22:33N 53°20' E 006°56'0 0.0
2014-Sep-26 21:33N 53°20' E 006°56'0 0.0
2014-Sep-26 20:33N 53°20' E 006°56'0 0.0
2014-Sep-26 19:33N 53°20' E 006°56'0 0.0
2014-Sep-26 18:33N 53°20' E 006°56'0 0.0
2014-Sep-26 17:33N 53°20' E 006°56'0 0.0
2014-Sep-26 16:33N 53°20' E 006°56'0 0.0
2014-Sep-26 15:33N 53°20' E 006°56'0 0.0
2014-Sep-26 14:33N 53°20' E 006°56'0 0.3
2014-Sep-26 13:33N 53°20' E 006°56'0 0.3
2014-Sep-26 12:33N 53°20' E 006°56'0 0.0
2014-Sep-26 11:33N 53°20' E 006°56'0 0.0
2014-Sep-26 10:33N 53°20' E 006°56'0 0.1
2014-Sep-26 09:33N 53°20' E 006°56'0 0.2
2014-Sep-26 08:33N 53°20' E 006°56'0 0.0
2014-Sep-26 07:33N 53°20' E 006°56'0 0.0
2014-Sep-26 06:33N 53°20' E 006°56'0 0.0
2014-Sep-26 05:33N 53°20' E 006°56'0 0.0
2014-Sep-26 04:33N 53°20' E 006°56'0 0.0
2014-Sep-26 03:33N 53°20' E 006°56'0 0.0
2014-Sep-26 02:33N 53°20' E 006°56'0 0.0
2014-Sep-26 01:33N 53°20' E 006°56'0 0.0
2014-Sep-26 00:33N 53°20' E 006°56'0 0.0
2014-Sep-25 23:33N 53°20' E 006°56'0 0.0
2014-Sep-25 22:33N 53°20' E 006°56'0 0.0
2014-Sep-25 21:33N 53°20' E 006°56'0 0.0
2014-Sep-25 20:33N 53°20' E 006°56'0 0.0
2014-Sep-25 19:33N 53°20' E 006°56'0 0.0
2014-Sep-25 18:33N 53°20' E 006°56'0 0.0
2014-Sep-25 17:33N 53°20' E 006°56'0 0.0
2014-Sep-25 16:33N 53°20' E 006°56'0 0.0
2014-Sep-25 15:33N 53°20' E 006°56'0 0.0
2014-Sep-25 14:33N 53°20' E 006°56'0 0.0
2014-Sep-25 13:33N 53°20' E 006°56'0 0.0
2014-Sep-25 12:33N 53°20' E 006°56'0 0.0
2014-Sep-25 11:33N 53°20' E 006°56'0 0.0
2014-Sep-25 10:33N 53°20' E 006°56'0 0.0
2014-Sep-25 09:33N 53°20' E 006°56'0 0.0
2014-Sep-25 08:33N 53°20' E 006°56'1 1.3
2014-Sep-25 07:33N 53°19' E 006°58'1 1.3
2014-Sep-25 06:34N 53°20' E 006°56'0 0.1
2014-Sep-25 05:31N 53°20' E 006°56'0 0.0
2014-Sep-25 04:31N 53°20' E 006°56'0 0.0
2014-Sep-25 03:31N 53°20' E 006°56'0 0.0
2014-Sep-25 02:31N 53°20' E 006°56'0 0.0
2014-Sep-25 01:31N 53°20' E 006°56'0 0.0
2014-Sep-25 00:31N 53°20' E 006°56'0 0.0
2014-Sep-24 23:31N 53°20' E 006°56'0 0.0
2014-Sep-24 22:31N 53°20' E 006°56'0 0.0
2014-Sep-24 21:31N 53°20' E 006°56'0 0.0
2014-Sep-24 20:31N 53°20' E 006°56'0 0.0
2014-Sep-24 19:31N 53°20' E 006°56'0 0.0
2014-Sep-24 18:31N 53°20' E 006°56'0 0.0
2014-Sep-24 17:31N 53°20' E 006°56'0 0.0
2014-Sep-24 16:31N 53°20' E 006°56'0 0.0
2014-Sep-24 15:31N 53°20' E 006°56'0 0.0
2014-Sep-24 14:31N 53°20' E 006°56'0 0.0
2014-Sep-24 13:31N 53°20' E 006°56'0 0.0
2014-Sep-24 12:31N 53°20' E 006°56'0 0.0
2014-Sep-24 11:31N 53°20' E 006°56'0 0.0
2014-Sep-24 10:31N 53°20' E 006°56'0 0.0
2014-Sep-24 09:31N 53°20' E 006°56'0 0.0
2014-Sep-24 08:31N 53°20' E 006°56'0 0.0
2014-Sep-24 07:31N 53°20' E 006°56'0 0.0
2014-Sep-24 06:31N 53°20' E 006°56'0 0.0
2014-Sep-24 05:31N 53°20' E 006°56'0 0.0
2014-Sep-24 04:31N 53°20' E 006°56'0 0.0
2014-Sep-24 03:31N 53°20' E 006°56'0 0.0
2014-Sep-24 02:31N 53°20' E 006°56'0 0.0
2014-Sep-24 01:31N 53°20' E 006°56'0 0.0
2014-Sep-24 00:31N 53°20' E 006°56'0 0.0
2014-Sep-23 23:31N 53°20' E 006°56'0 0.0
2014-Sep-23 22:28N 53°20' E 006°56'0 0.0
2014-Sep-23 21:31N 53°20' E 006°56'0 0.0
2014-Sep-23 20:31N 53°20' E 006°56'0 0.0
2014-Sep-23 19:31N 53°20' E 006°56'0 0.0
2014-Sep-23 18:31N 53°20' E 006°56'0 0.0
2014-Sep-23 17:31N 53°20' E 006°56'0 0.0
2014-Sep-23 16:31N 53°20' E 006°56'0 0.0
2014-Sep-23 15:31N 53°20' E 006°56'0 0.0
2014-Sep-23 14:31N 53°20' E 006°56'0 0.0
2014-Sep-23 13:28N 53°20' E 006°56'0 0.0
2014-Sep-23 12:31N 53°20' E 006°56'0 0.0
2014-Sep-23 11:31N 53°20' E 006°56'0 0.0
2014-Sep-23 10:31N 53°20' E 006°56'0 0.0
2014-Sep-23 09:31N 53°20' E 006°56'0 0.0
2014-Sep-23 08:31N 53°20' E 006°56'0 0.0
2014-Sep-23 07:31N 53°20' E 006°56'0 0.0
2014-Sep-23 06:34N 53°20' E 006°56'0 0.0
2014-Sep-23 05:32N 53°20' E 006°56'0 0.0
2014-Sep-23 04:32N 53°20' E 006°56'0 0.0
2014-Sep-23 03:32N 53°20' E 006°56'0 0.0
2014-Sep-23 02:32N 53°20' E 006°56'0 0.0
2014-Sep-23 01:32N 53°20' E 006°56'0 0.0
2014-Sep-23 00:32N 53°20' E 006°56'0 0.0
2014-Sep-22 23:32N 53°20' E 006°56'0 0.0
2014-Sep-22 22:32N 53°20' E 006°56'0 0.0
2014-Sep-22 21:32N 53°20' E 006°56'0 0.0
2014-Sep-22 20:32N 53°20' E 006°56'0 0.0
2014-Sep-22 19:32N 53°20' E 006°56'0 0.0
2014-Sep-22 18:32N 53°20' E 006°56'0 0.0
2014-Sep-22 17:32N 53°20' E 006°56'0 0.0
2014-Sep-22 16:32N 53°20' E 006°56'0 0.0
2014-Sep-22 15:32N 53°20' E 006°56'0 0.0
2014-Sep-22 14:32N 53°20' E 006°56'0 0.0
2014-Sep-22 13:29N 53°20' E 006°56'0 0.0
2014-Sep-22 12:32N 53°20' E 006°56'0 0.0
2014-Sep-22 11:32N 53°20' E 006°56'0 0.0
2014-Sep-22 10:29N 53°20' E 006°56'0 0.0
2014-Sep-22 09:29N 53°20' E 006°56'0 0.0
2014-Sep-22 08:32N 53°20' E 006°56'0 0.0
2014-Sep-22 07:32N 53°20' E 006°56'0 0.0
2014-Sep-22 06:32N 53°20' E 006°56'0 0.0
2014-Sep-22 05:32N 53°20' E 006°56'0 0.0
2014-Sep-22 04:32N 53°20' E 006°56'0 0.0
2014-Sep-22 03:32N 53°20' E 006°56'0 0.0
2014-Sep-22 02:32N 53°20' E 006°56'0 0.0
2014-Sep-22 01:32N 53°20' E 006°56'0 0.0
2014-Sep-22 00:32N 53°20' E 006°56'0 0.0
2014-Sep-21 23:32N 53°20' E 006°56'0 0.0
2014-Sep-21 22:32N 53°20' E 006°56'0 0.0
2014-Sep-21 21:32N 53°20' E 006°56'0 0.0
2014-Sep-21 20:32N 53°20' E 006°56'0 0.0
2014-Sep-21 19:32N 53°20' E 006°56'0 0.0
2014-Sep-21 18:32N 53°20' E 006°56'0 0.0
2014-Sep-21 17:32N 53°20' E 006°56'0 0.0
2014-Sep-21 16:32N 53°20' E 006°56'0 0.0
2014-Sep-21 15:32N 53°20' E 006°56'0 0.0
2014-Sep-21 14:32N 53°20' E 006°56'0 0.0
2014-Sep-21 13:32N 53°20' E 006°56'0 0.0
2014-Sep-21 12:32N 53°20' E 006°56'0 0.0
2014-Sep-21 11:32N 53°20' E 006°56'0 0.0
2014-Sep-21 10:32N 53°20' E 006°56'  

Dump ship's entire track history